createdAt,value
2017-03-23T00:01:22.110Z,4.3
2017-03-23T00:02:43.908Z,4.3
2017-03-23T00:04:06.432Z,4.32
2017-03-23T00:05:28.370Z,4.37
2017-03-23T00:06:51.158Z,4.34
2017-03-23T00:08:13.318Z,4.33
2017-03-23T00:09:35.839Z,4.36
2017-03-23T00:10:57.364Z,4.37
2017-03-23T00:12:20.115Z,4.3
2017-03-23T00:13:42.235Z,4.32
2017-03-23T00:15:04.056Z,4.24
2017-03-23T00:16:26.200Z,4.22
2017-03-23T00:17:49.045Z,4.16
2017-03-23T00:19:10.538Z,4.12
2017-03-23T00:20:32.780Z,4.16
2017-03-23T00:21:54.275Z,4.18
2017-03-23T00:23:15.827Z,4.2
2017-03-23T00:24:38.055Z,4.2
2017-03-23T00:26:00.188Z,4.11
2017-03-23T00:27:22.413Z,4.12
2017-03-23T00:28:44.467Z,4.14
2017-03-23T00:30:06.592Z,4.14
2017-03-23T00:31:28.127Z,4.23
2017-03-23T00:32:50.250Z,4.11
2017-03-23T00:34:12.329Z,4.14
2017-03-23T00:35:33.811Z,4.09
2017-03-23T00:36:55.961Z,4.05
2017-03-23T00:38:17.776Z,3.97
2017-03-23T00:39:40.224Z,3.94
2017-03-23T00:41:02.042Z,3.98
2017-03-23T00:42:23.946Z,4
2017-03-23T00:43:46.079Z,3.98
2017-03-23T00:45:08.818Z,4.05
2017-03-23T00:46:30.629Z,3.98
2017-03-23T00:47:52.437Z,4.02
2017-03-23T00:49:14.658Z,4.02
2017-03-23T00:50:37.170Z,4.02
2017-03-23T00:51:58.968Z,3.98
2017-03-23T00:53:20.771Z,4.08
2017-03-23T00:54:43.207Z,4.06
2017-03-23T00:56:05.553Z,4.02
2017-03-23T00:57:27.367Z,4.05
2017-03-23T00:58:48.869Z,4
2017-03-23T01:00:11.007Z,4.06
2017-03-23T01:01:33.544Z,4.08
2017-03-23T01:02:55.762Z,4.05
2017-03-23T01:04:18.259Z,4.09
2017-03-23T01:05:39.782Z,4.06
2017-03-23T01:07:01.849Z,4
2017-03-23T01:08:23.344Z,4.18
2017-03-23T01:09:45.173Z,4.12
2017-03-23T01:11:06.984Z,4.12
2017-03-23T01:12:30.022Z,4.29
2017-03-23T01:13:51.854Z,4.22
2017-03-23T01:15:13.784Z,4.24
2017-03-23T01:16:35.919Z,4.3
2017-03-23T01:17:58.602Z,4.3
2017-03-23T01:19:20.516Z,4.4
2017-03-23T01:20:42.626Z,4.33
2017-03-23T01:22:04.440Z,4.24
2017-03-23T01:23:26.988Z,4.2
2017-03-23T01:24:49.136Z,4.32
2017-03-23T01:26:11.532Z,4.22
2017-03-23T01:27:33.739Z,4.3
2017-03-23T01:28:55.840Z,4.15
2017-03-23T01:30:17.701Z,4.15
2017-03-23T01:31:39.625Z,4.16
2017-03-23T01:33:01.687Z,4.11
2017-03-23T01:34:24.105Z,4.18
2017-03-23T01:35:46.301Z,4.14
2017-03-23T01:37:08.472Z,4.12
2017-03-23T01:38:30.626Z,4.14
2017-03-23T01:39:53.042Z,4.14
2017-03-23T01:41:14.546Z,4.08
2017-03-23T01:42:37.107Z,4.09
2017-03-23T01:43:59.578Z,4.11
2017-03-23T01:45:22.015Z,4.09
2017-03-23T01:46:43.852Z,4.09
2017-03-23T01:48:05.979Z,4.09
2017-03-23T01:49:28.092Z,4.06
2017-03-23T01:50:50.486Z,4.11
2017-03-23T01:52:12.958Z,4.05
2017-03-23T01:53:35.084Z,4.05
2017-03-23T01:54:57.505Z,4.05
2017-03-23T01:56:19.660Z,4.04
2017-03-23T01:57:40.867Z,4.05
2017-03-23T01:59:03.293Z,4.09
2017-03-23T02:00:25.095Z,4.08
2017-03-23T02:01:47.516Z,4.15
2017-03-23T02:03:09.665Z,4.12
2017-03-23T02:04:31.464Z,4.12
2017-03-23T02:05:53.317Z,4.18
2017-03-23T02:07:15.383Z,4.14
2017-03-23T02:08:36.896Z,4.2
2017-03-23T02:09:58.689Z,4.06
2017-03-23T02:11:20.184Z,4.06
2017-03-23T02:12:42.865Z,4.12
2017-03-23T02:14:04.998Z,4.14
2017-03-23T02:15:27.266Z,4.15
2017-03-23T02:16:49.630Z,4.06
2017-03-23T02:18:12.148Z,4.08
2017-03-23T02:19:33.956Z,3.91
2017-03-23T02:20:55.465Z,4.02
2017-03-23T02:22:17.889Z,3.9
2017-03-23T02:23:39.987Z,3.91
2017-03-23T02:25:01.775Z,3.86
2017-03-23T02:26:24.223Z,3.86
2017-03-23T02:27:46.658Z,3.9
2017-03-23T02:29:08.235Z,3.9
2017-03-23T02:30:30.358Z,3.91
2017-03-23T02:31:52.937Z,3.91
2017-03-23T02:33:15.231Z,3.88
2017-03-23T02:34:36.967Z,3.93
2017-03-23T02:35:59.146Z,3.9
2017-03-23T02:37:20.914Z,3.84
2017-03-23T02:38:42.415Z,3.86
2017-03-23T02:40:04.166Z,3.8
2017-03-23T02:41:26.647Z,3.87
2017-03-23T02:42:48.756Z,3.94
2017-03-23T02:44:10.884Z,3.88
2017-03-23T02:45:32.819Z,3.88
2017-03-23T02:46:54.617Z,3.96
2017-03-23T02:48:16.447Z,3.76
2017-03-23T02:49:38.640Z,3.72
2017-03-23T02:51:01.478Z,3.84
2017-03-23T02:52:23.716Z,3.83
2017-03-23T02:53:46.202Z,3.78
2017-03-23T02:55:08.024Z,3.72
2017-03-23T02:56:30.818Z,3.73
2017-03-23T02:57:52.944Z,3.7
2017-03-23T02:59:14.421Z,3.86
2017-03-23T03:00:36.878Z,3.78
2017-03-23T03:01:59.677Z,3.83
2017-03-23T03:03:21.841Z,3.78
2017-03-23T03:04:43.416Z,3.76
2017-03-23T03:06:05.241Z,3.84
2017-03-23T03:07:27.404Z,3.8
2017-03-23T03:08:49.850Z,3.86
2017-03-23T03:10:11.687Z,3.93
2017-03-23T03:11:33.509Z,3.86
2017-03-23T03:12:55.891Z,3.88
2017-03-23T03:14:18.323Z,3.87
2017-03-23T03:15:40.424Z,3.86
2017-03-23T03:17:02.908Z,3.84
2017-03-23T03:18:25.575Z,3.78
2017-03-23T03:19:47.700Z,3.69
2017-03-23T03:21:09.529Z,3.69
2017-03-23T03:22:31.677Z,3.68
2017-03-23T03:23:54.203Z,3.75
2017-03-23T03:25:15.684Z,3.7
2017-03-23T03:26:37.856Z,3.79
2017-03-23T03:27:59.983Z,3.75
2017-03-23T03:29:22.447Z,3.73
2017-03-23T03:30:44.886Z,3.69
2017-03-23T03:32:07.359Z,3.73
2017-03-23T03:33:29.163Z,3.7
2017-03-23T03:34:51.658Z,3.94
2017-03-23T03:36:13.769Z,3.93
2017-03-23T03:37:35.275Z,3.97
2017-03-23T03:38:56.825Z,4.02
2017-03-23T03:40:19.705Z,4.02
2017-03-23T03:41:41.956Z,4.04
2017-03-23T03:43:03.546Z,4.05
2017-03-23T03:44:25.655Z,4.08
2017-03-23T03:45:48.139Z,4.09
2017-03-23T03:47:10.264Z,4.12
2017-03-23T03:48:32.160Z,4.27
2017-03-23T03:49:54.306Z,4.3
2017-03-23T03:51:16.789Z,4.37
2017-03-23T03:52:38.932Z,4.45
2017-03-23T03:54:01.045Z,4.5
2017-03-23T03:55:22.913Z,4.65
2017-03-23T03:56:44.678Z,4.65
2017-03-23T03:58:06.936Z,4.58
2017-03-23T03:59:29.065Z,4.63
2017-03-23T04:00:51.194Z,4.7
2017-03-23T04:02:13.857Z,4.75
2017-03-23T04:03:36.335Z,4.73
2017-03-23T04:04:58.475Z,4.84
2017-03-23T04:06:20.010Z,4.75
2017-03-23T04:07:41.475Z,4.91
2017-03-23T04:09:03.922Z,4.88
2017-03-23T04:10:26.147Z,4.77
2017-03-23T04:11:47.974Z,4.85
2017-03-23T04:13:10.125Z,4.78
2017-03-23T04:14:32.271Z,4.86
2017-03-23T04:15:53.758Z,4.84
2017-03-23T04:17:16.185Z,4.82
2017-03-23T04:18:37.983Z,4.91
2017-03-23T04:20:00.098Z,4.91
2017-03-23T04:21:22.592Z,4.88
2017-03-23T04:22:44.271Z,4.84
2017-03-23T04:24:07.024Z,4.78
2017-03-23T04:25:28.509Z,4.86
2017-03-23T04:26:51.219Z,4.88
2017-03-23T04:28:13.499Z,4.99
2017-03-23T04:29:35.941Z,5.04
2017-03-23T04:30:57.756Z,5.06
2017-03-23T04:32:19.707Z,5.06
2017-03-23T04:33:41.835Z,5.1
2017-03-23T04:35:03.656Z,5.12
2017-03-23T04:36:25.500Z,5.13
2017-03-23T04:37:46.363Z,5.09
2017-03-23T04:39:08.826Z,5.09
2017-03-23T04:40:31.240Z,5.1
2017-03-23T04:41:53.382Z,5.04
2017-03-23T04:43:15.635Z,5.02
2017-03-23T04:44:37.203Z,5.04
2017-03-23T04:45:59.344Z,5.06
2017-03-23T04:47:21.208Z,5.06
2017-03-23T04:48:43.006Z,5.03
2017-03-23T04:50:05.119Z,5.03
2017-03-23T04:51:27.280Z,5.06
2017-03-23T04:52:49.596Z,5.04
2017-03-23T04:54:11.824Z,5.07
2017-03-23T04:55:33.939Z,5.09
2017-03-23T04:56:56.416Z,5.09
2017-03-23T04:58:18.648Z,5.12
2017-03-23T04:59:40.780Z,5.1
2017-03-23T05:01:02.986Z,5.12
2017-03-23T05:02:25.435Z,5.15
2017-03-23T05:03:47.237Z,5.17
2017-03-23T05:05:09.344Z,5.17
2017-03-23T05:06:31.526Z,5.2
2017-03-23T05:07:53.583Z,5.2
2017-03-23T05:09:15.394Z,5.28
2017-03-23T05:10:37.204Z,5.31
2017-03-23T05:11:59.068Z,5.38
2017-03-23T05:13:21.230Z,5.4
2017-03-23T05:14:43.368Z,5.38
2017-03-23T05:16:05.888Z,5.42
2017-03-23T05:17:28.025Z,5.45
2017-03-23T05:18:50.127Z,5.51
2017-03-23T05:20:11.641Z,5.42
2017-03-23T05:21:33.188Z,5.38
2017-03-23T05:22:55.705Z,5.42
2017-03-23T05:24:18.436Z,5.48
2017-03-23T05:25:40.562Z,5.54
2017-03-23T05:27:03.210Z,5.49
2017-03-23T05:28:25.333Z,5.35
2017-03-23T05:29:47.716Z,5.42
2017-03-23T05:31:09.905Z,5.4
2017-03-23T05:32:32.346Z,5.35
2017-03-23T05:33:54.167Z,5.4
2017-03-23T05:35:16.555Z,5.42
2017-03-23T05:36:38.433Z,5.38
2017-03-23T05:38:00.551Z,5.35
2017-03-23T05:39:22.777Z,5.49
2017-03-23T05:40:45.470Z,5.57
2017-03-23T05:42:07.923Z,5.46
2017-03-23T05:43:30.076Z,5.53
2017-03-23T05:44:52.735Z,5.53
2017-03-23T05:46:14.813Z,5.56
2017-03-23T05:47:36.637Z,5.61
2017-03-23T05:48:59.137Z,5.72
2017-03-23T05:50:21.600Z,5.64
2017-03-23T05:51:43.979Z,5.67
2017-03-23T05:53:06.485Z,5.76
2017-03-23T05:54:28.316Z,5.82
2017-03-23T05:55:50.490Z,5.83
2017-03-23T05:57:13.323Z,5.82
2017-03-23T05:58:34.847Z,5.89
2017-03-23T05:59:56.757Z,5.9
2017-03-23T06:01:18.753Z,5.94
2017-03-23T06:02:41.561Z,5.94
2017-03-23T06:04:04.007Z,5.91
2017-03-23T06:05:26.458Z,5.93
2017-03-23T06:06:48.688Z,6.04
2017-03-23T06:08:10.765Z,6.03
2017-03-23T06:09:33.310Z,6.11
2017-03-23T06:10:55.136Z,6.09
2017-03-23T06:12:16.996Z,6.12
2017-03-23T06:13:39.696Z,6.14
2017-03-23T06:15:01.968Z,6.19
2017-03-23T06:16:24.441Z,6.12
2017-03-23T06:17:47.183Z,6.12
2017-03-23T06:19:09.311Z,6.18
2017-03-23T06:20:31.440Z,6.3
2017-03-23T06:21:53.556Z,6.22
2017-03-23T06:23:15.407Z,6.37
2017-03-23T06:24:37.817Z,6.36
2017-03-23T06:26:00.016Z,6.51
2017-03-23T06:27:22.661Z,6.44
2017-03-23T06:28:44.518Z,6.41
2017-03-23T06:30:06.288Z,6.46
2017-03-23T06:31:28.437Z,6.51
2017-03-23T06:32:50.583Z,6.46
2017-03-23T06:34:13.226Z,6.56
2017-03-23T06:35:35.674Z,6.51
2017-03-23T06:36:57.877Z,6.52
2017-03-23T06:38:20.017Z,6.48
2017-03-23T06:39:42.564Z,6.36
2017-03-23T06:41:05.297Z,6.61
2017-03-23T06:42:27.145Z,6.67
2017-03-23T06:43:49.646Z,6.71
2017-03-23T06:45:11.518Z,6.84
2017-03-23T06:46:33.625Z,6.84
2017-03-23T06:47:55.142Z,6.87
2017-03-23T06:49:17.651Z,7.06
2017-03-23T06:50:39.683Z,6.98
2017-03-23T06:52:02.116Z,7.15
2017-03-23T06:53:24.567Z,7.17
2017-03-23T06:54:47.045Z,7.3
2017-03-23T06:56:09.539Z,7.39
2017-03-23T06:57:31.681Z,7.61
2017-03-23T06:58:53.500Z,7.68
2017-03-23T07:00:15.330Z,8.18
2017-03-23T07:01:37.927Z,8.84
2017-03-23T07:03:00.310Z,9.51
2017-03-23T07:04:22.478Z,9.6
2017-03-23T07:05:44.336Z,9.29
2017-03-23T07:07:06.814Z,8.83
2017-03-23T07:08:29.015Z,8.8
2017-03-23T07:09:50.825Z,8.53
2017-03-23T07:11:12.972Z,8.55
2017-03-23T07:12:34.473Z,8.26
2017-03-23T07:13:56.542Z,8.3
2017-03-23T07:15:18.497Z,8.02
2017-03-23T07:16:40.431Z,7.77
2017-03-23T07:18:02.544Z,7.77
2017-03-23T07:19:24.945Z,7.6
2017-03-23T07:20:47.453Z,7.52
2017-03-23T07:22:09.668Z,7.58
2017-03-23T07:23:31.843Z,7.64
2017-03-23T07:24:54.609Z,7.69
2017-03-23T07:26:17.070Z,7.69
2017-03-23T07:27:38.686Z,7.8
2017-03-23T07:29:00.893Z,7.77
2017-03-23T07:30:23.446Z,7.82
2017-03-23T07:31:45.834Z,7.72
2017-03-23T07:33:07.642Z,7.68
2017-03-23T07:34:29.941Z,7.8
2017-03-23T07:35:52.554Z,7.75
2017-03-23T07:37:15.016Z,7.53
2017-03-23T07:38:37.490Z,7.49
2017-03-23T07:39:58.995Z,7.53
2017-03-23T07:41:21.739Z,7.52
2017-03-23T07:42:42.957Z,7.57
2017-03-23T07:44:05.088Z,7.69
2017-03-23T07:45:27.569Z,7.69
2017-03-23T07:46:50.224Z,7.85
2017-03-23T07:48:12.894Z,7.89
2017-03-23T07:49:35.343Z,7.93
2017-03-23T07:50:57.174Z,7.8
2017-03-23T07:52:19.586Z,7.85
2017-03-23T07:53:41.778Z,7.82
2017-03-23T07:55:03.677Z,7.97
2017-03-23T07:56:25.830Z,7.97
2017-03-23T07:57:48.604Z,8.15
2017-03-23T07:59:10.800Z,8.16
2017-03-23T08:00:33.276Z,8.02
2017-03-23T08:01:55.825Z,8.18
2017-03-23T08:03:18.609Z,8.15
2017-03-23T08:04:40.767Z,8.16
2017-03-23T08:06:02.616Z,8.3
2017-03-23T08:07:25.091Z,8.48
2017-03-23T08:08:48.037Z,8.65
2017-03-23T08:10:10.492Z,8.65
2017-03-23T08:11:32.941Z,8.7
2017-03-23T08:12:55.074Z,8.5
2017-03-23T08:14:17.523Z,8.26
2017-03-23T08:15:39.684Z,8.41
2017-03-23T08:17:01.536Z,8.63
2017-03-23T08:18:23.664Z,8.59
2017-03-23T08:19:46.465Z,8.84
2017-03-23T08:21:08.402Z,8.68
2017-03-23T08:22:30.336Z,8.94
2017-03-23T08:23:52.168Z,9.11
2017-03-23T08:25:14.705Z,8.96
2017-03-23T08:26:36.513Z,9.23
2017-03-23T08:27:58.649Z,9.31
2017-03-23T08:29:20.806Z,9.4
2017-03-23T08:30:43.219Z,9.28
2017-03-23T08:32:05.393Z,9.32
2017-03-23T08:33:27.974Z,9.58
2017-03-23T08:34:50.104Z,9.74
2017-03-23T08:36:12.641Z,9.68
2017-03-23T08:37:34.778Z,9.74
2017-03-23T08:38:57.266Z,9.78
2017-03-23T08:40:19.492Z,9.53
2017-03-23T08:41:41.968Z,9.47
2017-03-23T08:43:36.467Z,9.69
2017-03-23T08:44:58.225Z,9.58
2017-03-23T08:46:20.042Z,9.69
2017-03-23T08:47:42.304Z,9.71
2017-03-23T08:49:04.414Z,9.43
2017-03-23T08:50:26.556Z,9.83
2017-03-23T08:51:49.020Z,9.9
2017-03-23T08:53:11.398Z,10.12
2017-03-23T08:54:33.534Z,10.25
2017-03-23T08:55:55.464Z,10.22
2017-03-23T08:57:17.605Z,10.09
2017-03-23T08:58:40.073Z,9.91
2017-03-23T09:00:02.596Z,9.54
2017-03-23T09:01:24.406Z,9.58
2017-03-23T09:02:46.857Z,9.72
2017-03-23T09:04:09.279Z,10.02
2017-03-23T09:05:31.790Z,10.02
2017-03-23T09:06:54.247Z,9.91
2017-03-23T09:08:16.065Z,9.64
2017-03-23T09:09:38.126Z,9.58
2017-03-23T09:10:59.575Z,9.38
2017-03-23T09:12:22.131Z,9.56
2017-03-23T09:13:44.046Z,9.56
2017-03-23T09:15:06.474Z,9.58
2017-03-23T09:16:28.645Z,9.71
2017-03-23T09:17:50.174Z,9.83
2017-03-23T09:19:12.317Z,9.81
2017-03-23T09:20:35.006Z,9.79
2017-03-23T09:21:56.849Z,9.75
2017-03-23T09:23:19.935Z,9.39
2017-03-23T09:24:41.744Z,9.4
2017-03-23T09:26:03.906Z,9.47
2017-03-23T09:27:26.365Z,9.53
2017-03-23T09:28:48.201Z,9.58
2017-03-23T09:30:10.400Z,9.6
2017-03-23T09:31:33.146Z,9.42
2017-03-23T09:32:55.323Z,9.57
2017-03-23T09:34:18.064Z,9.43
2017-03-23T09:35:40.195Z,9.6
2017-03-23T09:37:02.976Z,9.66
2017-03-23T09:38:25.123Z,9.57
2017-03-23T09:39:46.667Z,9.86
2017-03-23T09:41:08.807Z,10.02
2017-03-23T09:42:30.554Z,10.14
2017-03-23T09:43:52.062Z,10.41
2017-03-23T09:45:14.397Z,10.66
2017-03-23T09:46:36.547Z,10.36
2017-03-23T09:47:58.662Z,10.27
2017-03-23T09:49:20.168Z,10.41
2017-03-23T09:50:42.334Z,10.53
2017-03-23T09:52:04.467Z,10.63
2017-03-23T09:53:26.912Z,10.41
2017-03-23T09:54:48.714Z,10.3
2017-03-23T09:56:11.199Z,10.4
2017-03-23T09:57:33.347Z,10.64
2017-03-23T09:58:56.104Z,10.71
2017-03-23T10:00:18.236Z,10.6
2017-03-23T10:01:40.744Z,10.6
2017-03-23T10:03:02.909Z,10.85
2017-03-23T10:04:25.438Z,10.73
2017-03-23T10:05:47.987Z,10.63
2017-03-23T10:07:41.904Z,10.42
2017-03-23T10:09:04.351Z,10.63
2017-03-23T10:10:26.939Z,10.94
2017-03-23T10:11:49.545Z,10.89
2017-03-23T10:13:11.734Z,11.07
2017-03-23T10:14:34.126Z,10.89
2017-03-23T10:15:55.963Z,10.88
2017-03-23T10:17:18.142Z,10.76
2017-03-23T10:18:40.614Z,10.76
2017-03-23T10:20:03.038Z,10.41
2017-03-23T10:21:25.551Z,10.34
2017-03-23T10:23:19.978Z,10.33
2017-03-23T10:24:42.444Z,10.48
2017-03-23T10:26:05.200Z,10.44
2017-03-23T10:27:27.806Z,10.56
2017-03-23T10:28:49.995Z,10.71
2017-03-23T10:30:12.866Z,10.53
2017-03-23T10:31:35.344Z,10.74
2017-03-23T10:32:57.782Z,10.73
2017-03-23T10:34:19.932Z,10.55
2017-03-23T10:35:42.324Z,10.68
2017-03-23T10:37:04.790Z,10.53
2017-03-23T10:38:27.236Z,10.56
2017-03-23T10:39:49.703Z,10.64
2017-03-23T10:41:12.141Z,10.71
2017-03-23T10:42:34.295Z,10.71
2017-03-23T10:43:56.757Z,10.82
2017-03-23T10:45:18.581Z,10.84
2017-03-23T10:46:41.441Z,10.61
2017-03-23T10:48:03.276Z,10.64
2017-03-23T10:49:25.751Z,10.88
2017-03-23T10:50:48.259Z,11.19
2017-03-23T10:52:10.652Z,11.54
2017-03-23T10:53:32.794Z,11.24
2017-03-23T10:54:54.679Z,11.06
2017-03-23T10:56:17.142Z,10.96
2017-03-23T10:57:39.718Z,11.11
2017-03-23T10:59:01.237Z,11.32
2017-03-23T11:00:23.769Z,11.32
2017-03-23T11:01:45.970Z,11.42
2017-03-23T11:03:08.463Z,11.27
2017-03-23T11:04:30.937Z,11.27
2017-03-23T11:05:52.456Z,11.11
2017-03-23T11:07:14.704Z,10.99
2017-03-23T11:08:37.631Z,11.09
2017-03-23T11:10:00.429Z,11.11
2017-03-23T11:11:54.242Z,11.32
2017-03-23T11:13:16.697Z,11.51
2017-03-23T11:14:38.927Z,11.75
2017-03-23T11:16:01.383Z,11.79
2017-03-23T11:17:23.517Z,11.64
2017-03-23T11:18:46.025Z,11.46
2017-03-23T11:20:07.854Z,11.29
2017-03-23T11:21:30.005Z,11.25
2017-03-23T11:22:51.864Z,11.51
2017-03-23T11:24:13.626Z,11.49
2017-03-23T11:25:36.105Z,11.55
2017-03-23T11:26:58.279Z,11.69
2017-03-23T11:28:20.743Z,11.36
2017-03-23T11:29:43.739Z,11.29
2017-03-23T11:31:06.212Z,11.57
2017-03-23T11:32:28.348Z,11.62
2017-03-23T11:33:50.556Z,11.49
2017-03-23T11:35:13.266Z,11.65
2017-03-23T11:36:35.725Z,11.83
2017-03-23T11:37:57.935Z,11.75
2017-03-23T11:39:20.097Z,11.65
2017-03-23T11:40:42.569Z,11.61
2017-03-23T11:42:04.736Z,11.69
2017-03-23T11:43:26.647Z,11.58
2017-03-23T11:44:48.810Z,11.37
2017-03-23T11:46:10.978Z,11.36
2017-03-23T11:47:33.117Z,11.39
2017-03-23T11:48:55.241Z,11.28
2017-03-23T11:50:17.105Z,11.18
2017-03-23T11:51:39.539Z,11.19
2017-03-23T11:53:01.660Z,11.32
2017-03-23T11:54:24.183Z,11.46
2017-03-23T11:55:46.634Z,11.64
2017-03-23T11:57:08.767Z,11.37
2017-03-23T11:58:30.635Z,11.33
2017-03-23T11:59:52.472Z,11.36
2017-03-23T12:01:14.033Z,11.33
2017-03-23T12:02:36.185Z,11.27
2017-03-23T12:03:58.336Z,11.29
2017-03-23T12:05:20.828Z,11.14
2017-03-23T12:06:42.678Z,10.92
2017-03-23T12:08:05.437Z,10.96
2017-03-23T12:09:27.596Z,10.85
2017-03-23T12:10:50.106Z,11.11
2017-03-23T12:12:12.604Z,11.14
2017-03-23T12:13:34.826Z,11.37
2017-03-23T12:14:57.022Z,11.27
2017-03-23T12:16:18.550Z,11.37
2017-03-23T12:17:40.680Z,11.6
2017-03-23T12:19:02.760Z,11.29
2017-03-23T12:20:25.022Z,11.27
2017-03-23T12:21:47.197Z,11.22
2017-03-23T12:23:09.663Z,11.19
2017-03-23T12:24:32.058Z,11.15
2017-03-23T12:25:54.196Z,10.97
2017-03-23T12:27:16.035Z,11.33
2017-03-23T12:28:38.179Z,11.37
2017-03-23T12:30:01.330Z,11.27
2017-03-23T12:31:23.773Z,11.43
2017-03-23T12:32:46.355Z,11.72
2017-03-23T12:34:08.494Z,11.86
2017-03-23T12:35:30.601Z,11.98
2017-03-23T12:36:53.097Z,12.13
2017-03-23T12:38:15.656Z,11.88
2017-03-23T12:39:37.476Z,11.73
2017-03-23T12:41:00.290Z,11.7
2017-03-23T12:42:22.864Z,11.88
2017-03-23T12:43:45.051Z,11.61
2017-03-23T12:45:07.511Z,12.04
2017-03-23T12:46:30.057Z,11.9
2017-03-23T12:47:52.321Z,11.72
2017-03-23T12:49:14.648Z,11.69
2017-03-23T12:50:36.813Z,11.32
2017-03-23T12:51:59.409Z,11.29
2017-03-23T12:53:22.085Z,11.52
2017-03-23T12:54:44.565Z,11.46
2017-03-23T12:56:07.021Z,11.25
2017-03-23T12:57:29.092Z,11.21
2017-03-23T12:58:51.311Z,11.29
2017-03-23T13:00:13.772Z,11.03
2017-03-23T13:01:35.896Z,11.03
2017-03-23T13:02:58.078Z,11.14
2017-03-23T13:04:20.628Z,11
2017-03-23T13:05:42.787Z,10.78
2017-03-23T13:07:05.237Z,10.66
2017-03-23T13:08:27.742Z,10.78
2017-03-23T13:09:49.666Z,10.68
2017-03-23T13:11:11.591Z,10.88
2017-03-23T13:12:33.834Z,10.94
2017-03-23T13:13:56.409Z,10.89
2017-03-23T13:15:18.546Z,10.88
2017-03-23T13:16:40.705Z,10.88
2017-03-23T13:18:02.640Z,10.84
2017-03-23T13:19:25.418Z,10.6
2017-03-23T13:20:47.588Z,10.55
2017-03-23T13:22:10.045Z,10.4
2017-03-23T13:23:32.217Z,10.41
2017-03-23T13:24:54.669Z,10.71
2017-03-23T13:26:16.983Z,11.09
2017-03-23T13:27:39.479Z,10.96
2017-03-23T13:29:01.616Z,10.88
2017-03-23T13:30:24.157Z,10.61
2017-03-23T13:31:46.541Z,10.7
2017-03-23T13:33:08.609Z,10.63
2017-03-23T13:34:30.846Z,10.66
2017-03-23T13:35:53.264Z,10.74
2017-03-23T13:37:15.160Z,10.94
2017-03-23T13:38:37.590Z,11.07
2017-03-23T13:40:00.309Z,11.06
2017-03-23T13:41:22.755Z,11.1
2017-03-23T13:42:44.991Z,10.86
2017-03-23T13:44:07.139Z,10.82
2017-03-23T13:45:28.974Z,10.89
2017-03-23T13:46:50.764Z,11.03
2017-03-23T13:48:12.643Z,10.85
2017-03-23T13:49:35.118Z,10.67
2017-03-23T13:50:57.577Z,10.84
2017-03-23T13:52:20.477Z,10.91
2017-03-23T13:53:42.708Z,11.02
2017-03-23T13:55:04.885Z,11.15
2017-03-23T13:56:27.093Z,10.97
2017-03-23T13:57:49.842Z,11.04
2017-03-23T13:59:11.984Z,10.88
2017-03-23T14:00:34.287Z,10.91
2017-03-23T14:01:56.149Z,10.82
2017-03-23T14:03:18.902Z,10.59
2017-03-23T14:04:40.725Z,10.52
2017-03-23T14:06:02.563Z,10.38
2017-03-23T14:07:24.806Z,10.51
2017-03-23T14:08:47.347Z,10.59
2017-03-23T14:10:09.484Z,10.53
2017-03-23T14:11:31.945Z,10.36
2017-03-23T14:12:54.537Z,10.42
2017-03-23T14:14:17.286Z,10.33
2017-03-23T14:15:39.738Z,10.3
2017-03-23T14:17:02.348Z,10.47
2017-03-23T14:18:24.951Z,10.4
2017-03-23T14:19:47.759Z,10.41
2017-03-23T14:21:10.295Z,10.29
2017-03-23T14:22:32.658Z,10.23
2017-03-23T14:23:55.077Z,10.22
2017-03-23T14:25:17.795Z,10.4
2017-03-23T14:26:39.989Z,10.38
2017-03-23T14:28:02.446Z,10.47
2017-03-23T14:29:24.597Z,10.52
2017-03-23T14:30:47.009Z,10.42
2017-03-23T14:32:09.719Z,10.63
2017-03-23T14:33:32.193Z,10.36
2017-03-23T14:34:54.327Z,10.42
2017-03-23T14:36:17.107Z,10.4
2017-03-23T14:37:39.547Z,10.33
2017-03-23T14:39:02.119Z,10.26
2017-03-23T14:40:23.622Z,10.12
2017-03-23T14:41:46.053Z,10.14
2017-03-23T14:43:08.579Z,10.22
2017-03-23T14:44:30.496Z,10.11
2017-03-23T14:45:52.635Z,10.22
2017-03-23T14:47:14.669Z,10.32
2017-03-23T14:48:37.161Z,10.33
2017-03-23T14:49:59.748Z,10.44
2017-03-23T14:51:21.910Z,10.42
2017-03-23T14:52:44.283Z,10.47
2017-03-23T14:54:06.536Z,10.4
2017-03-23T14:55:28.662Z,10.22
2017-03-23T14:56:50.504Z,10.38
2017-03-23T14:58:13.328Z,10.36
2017-03-23T14:59:35.925Z,10.27
2017-03-23T15:00:58.545Z,10.38
2017-03-23T15:02:20.813Z,10.4
2017-03-23T15:03:43.859Z,10.45
2017-03-23T15:05:05.370Z,10.52
2017-03-23T15:06:27.901Z,10.48
2017-03-23T15:07:50.067Z,10.66
2017-03-23T15:09:12.526Z,10.67
2017-03-23T15:10:34.995Z,10.78
2017-03-23T15:11:57.159Z,10.63
2017-03-23T15:13:19.645Z,10.63
2017-03-23T15:14:42.263Z,10.51
2017-03-23T15:16:04.186Z,10.67
2017-03-23T15:17:26.666Z,10.48
2017-03-23T15:18:49.125Z,10.53
2017-03-23T15:20:11.935Z,10.41
2017-03-23T15:21:34.077Z,10.51
2017-03-23T15:22:55.924Z,10.42
2017-03-23T15:24:18.427Z,10.36
2017-03-23T15:25:40.562Z,10.18
2017-03-23T15:27:03.016Z,10.18
2017-03-23T15:28:25.501Z,10.17
2017-03-23T15:29:47.970Z,10.2
2017-03-23T15:31:10.475Z,10.09
2017-03-23T15:32:32.640Z,10.02
2017-03-23T15:33:55.130Z,10.04
2017-03-23T15:35:17.597Z,10.09
2017-03-23T15:36:40.047Z,9.99
2017-03-23T15:38:02.540Z,9.97
2017-03-23T15:39:25.098Z,10.07
2017-03-23T15:40:47.274Z,9.94
2017-03-23T15:42:41.808Z,9.91
2017-03-23T15:44:04.274Z,9.84
2017-03-23T15:45:26.559Z,9.93
2017-03-23T15:46:49.042Z,10.17
2017-03-23T15:48:11.823Z,10.18
2017-03-23T15:49:34.028Z,10.05
2017-03-23T15:50:56.490Z,10.15
2017-03-23T15:52:19.210Z,9.97
2017-03-23T15:53:42.032Z,10.04
2017-03-23T15:55:04.284Z,10.01
2017-03-23T15:56:27.003Z,9.83
2017-03-23T15:57:48.827Z,9.79
2017-03-23T15:59:11.544Z,9.83
2017-03-23T16:00:34.010Z,9.83
2017-03-23T16:01:56.227Z,9.89
2017-03-23T16:03:18.720Z,9.86
2017-03-23T16:04:41.591Z,9.84
2017-03-23T16:06:04.210Z,9.83
2017-03-23T16:07:26.682Z,9.79
2017-03-23T16:08:48.844Z,9.83
2017-03-23T16:10:11.639Z,9.66
2017-03-23T16:11:33.838Z,9.75
2017-03-23T16:12:56.000Z,9.71
2017-03-23T16:14:18.235Z,9.68
2017-03-23T16:15:40.812Z,9.69
2017-03-23T16:17:02.960Z,9.71
2017-03-23T16:18:25.148Z,9.71
2017-03-23T16:19:47.703Z,9.61
2017-03-23T16:21:10.726Z,9.65
2017-03-23T16:22:33.219Z,9.57
2017-03-23T16:23:55.722Z,9.57
2017-03-23T16:25:18.471Z,9.6
2017-03-23T16:26:41.106Z,9.57
2017-03-23T16:28:03.604Z,9.58
2017-03-23T16:29:26.123Z,9.54
2017-03-23T16:30:48.301Z,9.58
2017-03-23T16:32:11.076Z,9.58
2017-03-23T16:33:33.560Z,9.6
2017-03-23T16:34:56.107Z,9.39
2017-03-23T16:36:18.774Z,9.39
2017-03-23T16:37:41.668Z,9.28
2017-03-23T16:39:03.842Z,9.39
2017-03-23T16:40:26.339Z,9.47
2017-03-23T16:41:48.494Z,9.39
2017-03-23T16:43:11.312Z,9.4
2017-03-23T16:44:33.581Z,9.31
2017-03-23T16:45:56.758Z,9.33
2017-03-23T16:47:18.909Z,9.32
2017-03-23T16:48:41.667Z,9.28
2017-03-23T16:50:04.134Z,9.24
2017-03-23T16:51:26.316Z,9.21
2017-03-23T16:52:48.546Z,9.15
2017-03-23T16:54:40.342Z,9.14
2017-03-23T16:56:02.489Z,9.08
2017-03-23T16:57:24.669Z,9.05
2017-03-23T16:58:47.204Z,9.1
2017-03-23T17:00:09.777Z,9.1
2017-03-23T17:01:32.304Z,9.04
2017-03-23T17:02:54.805Z,9.05
2017-03-23T17:04:17.298Z,8.98
2017-03-23T17:05:40.125Z,9.01
2017-03-23T17:07:02.658Z,8.99
2017-03-23T17:08:25.247Z,9.05
2017-03-23T17:09:47.758Z,8.94
2017-03-23T17:11:10.548Z,9.11
2017-03-23T17:12:33.030Z,9.01
2017-03-23T17:13:55.257Z,8.94
2017-03-23T17:15:17.466Z,8.95
2017-03-23T17:16:39.742Z,8.87
2017-03-23T17:18:02.215Z,8.98
2017-03-23T17:19:24.797Z,8.8
2017-03-23T17:20:46.949Z,8.8
2017-03-23T17:22:09.423Z,8.8
2017-03-23T17:23:31.931Z,8.83
2017-03-23T17:24:54.550Z,8.84
2017-03-23T17:26:17.046Z,8.73
2017-03-23T17:27:39.203Z,8.8
2017-03-23T17:29:01.960Z,8.77
2017-03-23T17:30:24.459Z,8.83
2017-03-23T17:31:46.714Z,8.81
2017-03-23T17:33:09.560Z,8.74
2017-03-23T17:34:31.775Z,8.83
2017-03-23T17:35:54.304Z,8.79
2017-03-23T17:37:16.630Z,8.7
2017-03-23T17:38:38.987Z,8.76
2017-03-23T17:40:01.522Z,8.76
2017-03-23T17:41:23.689Z,8.68
2017-03-23T17:42:46.168Z,8.77
2017-03-23T17:44:08.702Z,8.77
2017-03-23T17:45:31.327Z,8.73
2017-03-23T17:46:53.496Z,8.71
2017-03-23T17:48:15.747Z,8.74
2017-03-23T17:49:38.307Z,8.7
2017-03-23T17:51:00.808Z,8.74
2017-03-23T17:52:23.318Z,8.8
2017-03-23T17:53:45.508Z,8.7
2017-03-23T17:55:08.277Z,8.71
2017-03-23T17:56:30.810Z,8.62
2017-03-23T17:57:53.150Z,8.59
2017-03-23T17:59:15.305Z,8.52
2017-03-23T18:00:38.127Z,8.58
2017-03-23T18:02:00.703Z,8.55
2017-03-23T18:03:23.262Z,8.53
2017-03-23T18:04:45.856Z,8.55
2017-03-23T18:06:08.424Z,8.52
2017-03-23T18:07:30.371Z,8.55
2017-03-23T18:08:52.586Z,8.5
2017-03-23T18:10:15.009Z,8.53